createdAt,value
2023-09-08T00:00:26.931Z,9.40
2023-09-08T00:02:53.586Z,9.50
2023-09-08T00:05:20.308Z,9.38
2023-09-08T00:07:46.933Z,9.30
2023-09-08T00:10:13.652Z,9.77
2023-09-08T00:12:40.581Z,9.10
2023-09-08T00:15:08.069Z,10.00
2023-09-08T00:17:34.708Z,10.05
2023-09-08T00:20:01.563Z,9.95
2023-09-08T00:22:28.282Z,9.73
2023-09-08T00:24:56.039Z,9.23
2023-09-08T00:27:22.701Z,10.30
2023-09-08T00:29:49.328Z,9.60
2023-09-08T00:32:17.019Z,9.95
2023-09-08T00:34:43.788Z,10.57
2023-09-08T00:37:10.880Z,10.38
2023-09-08T00:39:38.987Z,11.27
2023-09-08T00:42:06.217Z,10.70
2023-09-08T00:44:32.928Z,10.23
2023-09-08T00:47:52.421Z,11.40
2023-09-08T00:50:20.910Z,11.02
2023-09-08T00:52:47.646Z,11.70
2023-09-08T00:55:14.553Z,11.68
2023-09-08T00:57:55.470Z,11.43
2023-09-08T01:00:22.184Z,11.70
2023-09-08T01:02:49.252Z,12.00
2023-09-08T01:05:16.310Z,11.32
2023-09-08T01:07:43.616Z,12.00
2023-09-08T01:10:10.911Z,11.68
2023-09-08T01:12:37.614Z,12.83
2023-09-08T01:15:05.969Z,12.13
2023-09-08T01:17:32.727Z,11.95
2023-09-08T01:20:13.956Z,11.57
2023-09-08T01:23:29.439Z,12.07
2023-09-08T01:26:11.421Z,11.50
2023-09-08T01:28:41.115Z,12.60
2023-09-08T01:31:08.892Z,12.00
2023-09-08T01:33:36.935Z,11.52
2023-09-08T01:36:04.043Z,12.35
2023-09-08T01:38:31.562Z,12.10
2023-09-08T01:40:58.294Z,12.32
2023-09-08T01:43:24.977Z,12.05
2023-09-08T01:45:51.705Z,13.00
2023-09-08T01:48:18.447Z,12.45
2023-09-08T01:50:45.158Z,12.13
2023-09-08T01:53:11.896Z,13.00
2023-09-08T01:55:38.550Z,12.48
2023-09-08T01:58:05.313Z,12.80
2023-09-08T02:00:32.310Z,13.35
2023-09-08T02:02:59.102Z,13.50
2023-09-08T02:05:27.758Z,13.65
2023-09-08T02:07:56.758Z,13.35
2023-09-08T02:10:35.893Z,13.50
2023-09-08T02:13:02.817Z,13.02
2023-09-08T02:15:29.590Z,13.77
2023-09-08T02:17:57.471Z,13.20
2023-09-08T02:20:24.189Z,14.00
2023-09-08T02:22:55.792Z,12.57
2023-09-08T02:25:25.264Z,13.02
2023-09-08T02:27:51.972Z,12.83
2023-09-08T02:30:18.771Z,13.20
2023-09-08T02:32:45.835Z,13.52
2023-09-08T02:35:12.592Z,13.85
2023-09-08T02:37:39.371Z,13.07
2023-09-08T02:40:07.700Z,13.63
2023-09-08T02:42:34.410Z,12.70
2023-09-08T02:45:01.296Z,13.60
2023-09-08T02:47:27.946Z,12.75
2023-09-08T02:49:54.619Z,12.70
2023-09-08T02:52:21.354Z,12.93
2023-09-08T02:54:48.061Z,12.68
2023-09-08T02:57:14.735Z,13.63
2023-09-08T02:59:41.360Z,13.18
2023-09-08T03:02:08.179Z,13.18
2023-09-08T03:04:34.956Z,13.33
2023-09-08T03:07:01.623Z,13.55
2023-09-08T03:09:28.251Z,14.05
2023-09-08T03:11:54.897Z,12.80
2023-09-08T03:14:21.626Z,13.50
2023-09-08T03:16:48.409Z,14.00
2023-09-08T03:19:15.071Z,13.60
2023-09-08T03:21:41.733Z,13.98
2023-09-08T03:24:08.442Z,13.77
2023-09-08T03:26:35.166Z,13.77
2023-09-08T03:29:18.383Z,13.50
2023-09-08T03:42:26.647Z,13.90
2023-09-08T03:45:56.537Z,14.77
2023-09-08T03:48:23.587Z,14.20
2023-09-08T03:50:50.464Z,14.63
2023-09-08T03:53:17.218Z,13.88
2023-09-08T03:55:43.915Z,13.95
2023-09-08T03:58:10.624Z,13.50
2023-09-08T04:00:37.998Z,14.10
2023-09-08T04:03:05.232Z,13.35
2023-09-08T04:05:32.074Z,13.80
2023-09-08T04:07:58.809Z,13.73
2023-09-08T04:10:25.712Z,14.10
2023-09-08T04:12:52.426Z,14.55
2023-09-08T04:15:19.280Z,14.70
2023-09-08T04:17:47.157Z,13.70
2023-09-08T04:20:16.048Z,14.60
2023-09-08T04:22:42.888Z,14.77
2023-09-08T04:32:44.855Z,14.88
2023-09-08T04:35:11.771Z,14.70
2023-09-08T04:37:38.398Z,14.37
2023-09-08T04:40:06.090Z,13.80
2023-09-08T04:42:32.822Z,15.73
2023-09-08T04:44:59.559Z,15.15
2023-09-08T04:47:26.317Z,15.10
2023-09-08T04:49:53.046Z,15.70
2023-09-08T04:52:19.801Z,14.38
2023-09-08T04:54:46.787Z,14.43
2023-09-08T04:57:22.716Z,15.38
2023-09-08T04:59:50.616Z,15.13
2023-09-08T05:02:19.328Z,15.43
2023-09-08T05:04:46.291Z,16.40
2023-09-08T05:07:14.455Z,15.80
2023-09-08T05:09:41.497Z,15.38
2023-09-08T05:12:08.298Z,15.48
2023-09-08T05:14:35.140Z,15.97
2023-09-08T05:17:01.794Z,15.80
2023-09-08T05:19:28.475Z,16.23
2023-09-08T05:21:55.998Z,15.18
2023-09-08T05:24:22.949Z,15.43
2023-09-08T05:26:49.659Z,15.33
2023-09-08T05:33:27.613Z,15.48
2023-09-08T05:40:01.413Z,16.35
2023-09-08T05:42:28.148Z,15.73
2023-09-08T05:44:55.780Z,15.45
2023-09-08T05:47:22.668Z,15.32
2023-09-08T05:49:49.506Z,14.38
2023-09-08T05:52:16.265Z,15.35
2023-09-08T05:54:43.042Z,15.70
2023-09-08T05:57:09.775Z,15.52
2023-09-08T06:02:42.155Z,15.00
2023-09-08T06:05:09.047Z,14.98
2023-09-08T06:07:38.391Z,14.77
2023-09-08T06:10:06.061Z,15.13
2023-09-08T06:12:32.753Z,15.63
2023-09-08T06:14:59.491Z,14.48
2023-09-08T06:17:26.187Z,15.95
2023-09-08T06:19:53.209Z,15.57
2023-09-08T06:22:19.891Z,14.88
2023-09-08T06:24:46.577Z,16.23
2023-09-08T06:27:15.432Z,14.68
2023-09-08T06:29:44.519Z,15.93
2023-09-08T06:32:12.039Z,15.27
2023-09-08T06:34:38.980Z,14.88
2023-09-08T06:37:05.664Z,15.13
2023-09-08T06:39:32.389Z,14.93
2023-09-08T06:41:59.072Z,13.52
2023-09-08T06:44:26.024Z,14.50
2023-09-08T06:46:52.834Z,13.40
2023-09-08T06:49:19.658Z,14.48
2023-09-08T06:51:48.668Z,14.43
2023-09-08T06:54:15.490Z,13.82
2023-09-08T06:56:42.210Z,13.63
2023-09-08T06:59:08.918Z,13.80
2023-09-08T07:01:36.635Z,14.07
2023-09-08T07:04:03.549Z,12.18
2023-09-08T07:06:30.432Z,13.30
2023-09-08T07:08:57.261Z,11.90
2023-09-08T07:11:24.194Z,12.60
2023-09-08T07:13:50.879Z,12.95
2023-09-08T07:16:17.618Z,12.77
2023-09-08T07:18:44.862Z,11.50
2023-09-08T07:21:11.664Z,12.30
2023-09-08T07:23:39.300Z,11.25
2023-09-08T07:26:06.780Z,11.85
2023-09-08T07:28:34.548Z,10.65
2023-09-08T07:31:10.190Z,11.88
2023-09-08T07:33:37.969Z,10.70
2023-09-08T07:36:09.108Z,11.32
2023-09-08T07:38:36.454Z,10.45
2023-09-08T07:41:03.439Z,11.43
2023-09-08T07:43:30.642Z,10.88
2023-09-08T07:45:57.603Z,10.40
2023-09-08T07:48:24.431Z,10.68
2023-09-08T07:50:51.390Z,10.77
2023-09-08T07:53:18.283Z,10.15
2023-09-08T07:55:45.024Z,9.27
2023-09-08T07:58:11.776Z,9.63
2023-09-08T08:00:38.454Z,9.77
2023-09-08T08:03:05.510Z,10.35
2023-09-08T08:05:32.282Z,9.50
2023-09-08T08:07:58.961Z,9.93
2023-09-08T08:10:25.717Z,9.77
2023-09-08T08:12:52.496Z,8.73
2023-09-08T08:15:22.513Z,8.70
2023-09-08T08:17:49.481Z,8.18
2023-09-08T08:20:19.516Z,8.65
2023-09-08T08:22:47.308Z,8.10
2023-09-08T08:25:14.293Z,8.98
2023-09-08T08:27:42.214Z,8.65
2023-09-08T08:30:09.639Z,8.15
2023-09-08T08:32:36.469Z,9.98
2023-09-08T08:35:05.562Z,8.43
2023-09-08T08:37:32.326Z,7.65
2023-09-08T08:39:59.009Z,7.78
2023-09-08T08:42:32.898Z,7.45
2023-09-08T08:45:02.027Z,7.75
2023-09-08T08:47:32.290Z,7.77
2023-09-08T08:50:00.710Z,8.27
2023-09-08T08:52:29.220Z,8.48
2023-09-08T08:54:56.766Z,8.20
2023-09-08T08:57:24.417Z,7.57
2023-09-08T08:59:54.306Z,8.00
2023-09-08T09:02:22.423Z,8.10
2023-09-08T09:04:49.827Z,7.80
2023-09-08T09:07:19.332Z,7.80
2023-09-08T09:09:46.118Z,8.30
2023-09-08T09:12:13.160Z,8.00
2023-09-08T09:14:47.224Z,7.45
2023-09-08T09:17:15.914Z,7.95
2023-09-08T09:19:42.705Z,7.93
2023-09-08T09:22:09.415Z,9.00
2023-09-08T09:24:47.639Z,8.33
2023-09-08T09:27:14.660Z,8.45
2023-09-08T09:29:49.455Z,7.60
2023-09-08T09:32:17.341Z,6.80
2023-09-08T09:34:54.246Z,7.97
2023-09-08T09:37:22.459Z,7.27
2023-09-08T09:39:54.133Z,7.47
2023-09-08T09:42:22.265Z,7.82
2023-09-08T09:44:50.430Z,7.57
2023-09-08T09:47:17.764Z,6.30
2023-09-08T09:49:49.476Z,7.50
2023-09-08T09:52:23.999Z,7.00
2023-09-08T09:54:55.708Z,7.55
2023-09-08T09:57:23.559Z,6.80
2023-09-08T09:59:51.778Z,7.10
2023-09-08T10:02:23.594Z,7.47
2023-09-08T10:04:51.590Z,6.90
2023-09-08T10:07:19.173Z,6.53
2023-09-08T10:09:46.316Z,6.63
2023-09-08T10:12:19.081Z,7.22
2023-09-08T10:14:48.268Z,6.60
2023-09-08T10:17:21.964Z,7.45
2023-09-08T10:19:52.654Z,6.90
2023-09-08T10:22:24.727Z,7.47
2023-09-08T10:24:54.276Z,8.13
2023-09-08T10:27:24.680Z,7.10
2023-09-08T10:29:52.809Z,8.00
2023-09-08T10:32:21.416Z,7.93
2023-09-08T10:34:49.956Z,7.30
2023-09-08T10:37:21.647Z,6.82
2023-09-08T10:39:48.539Z,7.87
2023-09-08T10:42:18.515Z,7.80
2023-09-08T10:44:51.065Z,7.40
2023-09-08T10:47:31.145Z,8.30
2023-09-08T10:50:00.926Z,7.93
2023-09-08T10:52:28.589Z,7.17
2023-09-08T10:54:56.950Z,7.35
2023-09-08T10:57:25.593Z,7.40
2023-09-08T11:00:13.173Z,7.22
2023-09-08T11:02:55.915Z,8.25
2023-09-08T11:05:22.791Z,7.50
2023-09-08T11:07:53.836Z,8.10
2023-09-08T11:10:20.769Z,7.43
2023-09-08T11:12:48.677Z,7.38
2023-09-08T11:15:15.328Z,7.60
2023-09-08T11:17:43.059Z,8.80
2023-09-08T11:20:11.380Z,8.20
2023-09-08T11:22:42.225Z,7.85
2023-09-08T11:25:11.874Z,7.90
2023-09-08T11:27:40.748Z,7.50
2023-09-08T11:30:09.525Z,7.50
2023-09-08T11:32:36.889Z,7.20
2023-09-08T11:35:09.830Z,7.53
2023-09-08T11:37:42.463Z,7.45
2023-09-08T11:40:14.854Z,7.55
2023-09-08T11:42:46.779Z,7.67
2023-09-08T11:45:24.479Z,6.68
2023-09-08T11:47:51.391Z,7.20
2023-09-08T11:50:19.836Z,7.13
2023-09-08T11:52:51.539Z,7.80
2023-09-08T11:55:19.420Z,7.07
2023-09-08T11:57:49.632Z,7.25
2023-09-08T12:00:19.081Z,7.80
2023-09-08T12:02:46.706Z,8.00
2023-09-08T12:05:24.075Z,8.82
2023-09-08T12:07:56.076Z,6.90
2023-09-08T12:10:23.911Z,8.60
2023-09-08T12:12:56.450Z,7.43
2023-09-08T12:15:36.206Z,7.00
2023-09-08T12:18:07.288Z,7.70
2023-09-08T12:20:34.744Z,7.43
2023-09-08T12:23:08.470Z,6.93
2023-09-08T12:25:44.925Z,8.30
2023-09-08T12:28:11.853Z,7.47
2023-09-08T12:30:40.081Z,7.60
2023-09-08T12:33:08.623Z,7.40
2023-09-08T12:35:36.029Z,7.80
2023-09-08T12:38:05.148Z,7.47
2023-09-08T12:40:37.746Z,6.78
2023-09-08T12:43:12.437Z,8.05
2023-09-08T12:45:52.097Z,6.90
2023-09-08T12:48:18.807Z,7.60
2023-09-08T12:50:45.479Z,7.07
2023-09-08T12:53:12.156Z,6.30
2023-09-08T12:55:38.797Z,7.15
2023-09-08T12:58:05.656Z,7.33
2023-09-08T13:00:32.406Z,6.70
2023-09-08T13:02:59.268Z,7.82
2023-09-08T13:05:26.026Z,6.25
2023-09-08T13:07:52.720Z,7.53
2023-09-08T13:10:21.002Z,8.03
2023-09-08T13:12:49.448Z,7.50
2023-09-08T13:15:16.188Z,7.47
2023-09-08T13:17:43.376Z,7.03
2023-09-08T13:20:10.832Z,6.90
2023-09-08T13:22:37.669Z,6.73
2023-09-08T13:25:04.920Z,6.97
2023-09-08T13:27:31.688Z,6.00
2023-09-08T13:30:15.541Z,6.93
2023-09-08T13:32:43.737Z,7.28
2023-09-08T13:35:10.652Z,5.93
2023-09-08T13:37:39.313Z,6.82
2023-09-08T13:40:07.633Z,6.72
2023-09-08T13:42:35.121Z,6.35
2023-09-08T13:45:02.344Z,6.38
2023-09-08T13:47:29.596Z,6.50
2023-09-08T13:49:58.346Z,7.07
2023-09-08T13:52:27.572Z,7.13
2023-09-08T13:55:12.499Z,6.85
2023-09-08T13:57:42.587Z,6.45
2023-09-08T14:00:15.787Z,7.10
2023-09-08T14:02:46.357Z,7.70
2023-09-08T14:05:18.899Z,6.35
2023-09-08T14:07:52.387Z,7.45
2023-09-08T14:12:52.072Z,5.63
2023-09-08T14:15:18.782Z,6.97
2023-09-08T14:17:45.765Z,7.45
2023-09-08T14:20:12.743Z,6.15
2023-09-08T14:22:39.640Z,7.40
2023-09-08T14:25:06.999Z,6.63
2023-09-08T14:27:34.792Z,7.50
2023-09-08T14:30:01.745Z,7.95
2023-09-08T14:32:28.501Z,7.30
2023-09-08T14:34:55.635Z,6.65
2023-09-08T14:37:22.432Z,7.57
2023-09-08T14:39:49.419Z,6.60
2023-09-08T14:42:16.423Z,7.70
2023-09-08T14:44:43.228Z,7.30
2023-09-08T14:47:10.014Z,8.25
2023-09-08T14:49:36.706Z,7.10
2023-09-08T14:52:03.552Z,7.65
2023-09-08T14:54:30.279Z,7.68
2023-09-08T14:56:56.961Z,7.63
2023-09-08T14:59:23.738Z,7.05
2023-09-08T15:01:52.183Z,8.57
2023-09-08T15:04:19.235Z,7.28
2023-09-08T15:06:46.039Z,7.03
2023-09-08T15:09:13.554Z,8.45
2023-09-08T15:11:40.331Z,7.35
2023-09-08T15:14:07.514Z,7.87
2023-09-08T15:16:34.412Z,7.90
2023-09-08T15:19:01.357Z,7.80
2023-09-08T15:21:30.917Z,7.65
2023-09-08T15:23:57.607Z,7.22
2023-09-08T15:26:24.920Z,7.27
2023-09-08T15:28:51.630Z,7.65
2023-09-08T15:31:18.632Z,6.80
2023-09-08T15:33:45.757Z,8.13
2023-09-08T15:36:13.158Z,6.63
2023-09-08T15:38:39.916Z,7.00
2023-09-08T15:41:10.904Z,7.78
2023-09-08T15:43:39.192Z,8.57
2023-09-08T15:46:06.948Z,7.57
2023-09-08T15:48:38.012Z,8.05
2023-09-08T15:51:05.678Z,7.03
2023-09-08T15:53:35.521Z,8.10
2023-09-08T15:56:02.479Z,8.55
2023-09-08T15:58:29.183Z,6.68
2023-09-08T16:00:56.019Z,7.43
2023-09-08T16:03:22.921Z,7.60
2023-09-08T16:05:49.788Z,7.57
2023-09-08T16:08:16.459Z,7.93
2023-09-08T16:10:43.145Z,7.07
2023-09-08T16:13:09.960Z,7.53
2023-09-08T16:15:36.684Z,8.40
2023-09-08T16:18:06.019Z,7.63
2023-09-08T16:20:33.173Z,8.75
2023-09-08T16:22:59.949Z,7.35
2023-09-08T16:25:26.704Z,7.72
2023-09-08T16:27:53.391Z,7.60
2023-09-08T16:30:20.140Z,7.60
2023-09-08T16:32:47.686Z,7.53
2023-09-08T16:35:14.542Z,7.40
2023-09-08T16:37:41.327Z,7.40
2023-09-08T16:40:08.525Z,7.97
2023-09-08T16:42:35.369Z,7.78
2023-09-08T16:45:02.059Z,7.40
2023-09-08T16:47:28.762Z,7.32
2023-09-08T16:49:55.468Z,8.85
2023-09-08T16:52:23.748Z,7.27
2023-09-08T16:54:50.700Z,7.65
2023-09-08T16:57:17.959Z,6.93
2023-09-08T16:59:45.016Z,8.10
2023-09-08T17:02:11.734Z,7.80
2023-09-08T17:04:38.795Z,8.20
2023-09-08T17:07:05.655Z,7.32
2023-09-08T17:09:32.495Z,8.18
2023-09-08T17:11:59.382Z,7.05
2023-09-08T17:14:26.097Z,8.05
2023-09-08T17:16:53.568Z,8.63
2023-09-08T17:19:20.365Z,8.40
2023-09-08T17:21:47.210Z,7.75
2023-09-08T17:24:15.036Z,6.60
2023-09-08T17:26:41.766Z,6.95
2023-09-08T17:29:09.681Z,8.93
2023-09-08T17:31:36.685Z,7.47
2023-09-08T17:34:03.381Z,7.90
2023-09-08T17:36:30.071Z,7.20
2023-09-08T17:38:57.025Z,7.70
2023-09-08T17:41:23.675Z,7.07
2023-09-08T17:43:50.305Z,7.22
2023-09-08T17:46:17.139Z,8.00
2023-09-08T17:48:43.890Z,8.52
2023-09-08T17:51:10.576Z,8.13
2023-09-08T17:53:38.399Z,7.23
2023-09-08T17:56:05.504Z,8.02
2023-09-08T17:58:32.264Z,8.45
2023-09-08T18:00:59.016Z,8.23
2023-09-08T18:03:25.917Z,8.27
2023-09-08T18:05:52.719Z,6.73
2023-09-08T18:08:19.417Z,7.45
2023-09-08T18:10:47.593Z,8.52
2023-09-08T18:13:14.393Z,7.07
2023-09-08T18:15:41.340Z,7.45
2023-09-08T18:18:08.471Z,7.70
2023-09-08T18:20:35.376Z,7.15
2023-09-08T18:23:02.042Z,8.10
2023-09-08T18:25:28.842Z,8.55
2023-09-08T18:27:55.612Z,7.93
2023-09-08T18:30:22.345Z,8.80
2023-09-08T18:32:49.334Z,7.30
2023-09-08T18:35:16.276Z,8.50
2023-09-08T18:37:43.069Z,7.22
2023-09-08T18:40:11.428Z,7.20
2023-09-08T18:42:39.707Z,7.80
2023-09-08T18:45:06.921Z,7.43
2023-09-08T18:47:33.771Z,7.32
2023-09-08T18:50:00.533Z,7.43
2023-09-08T18:52:27.252Z,7.80
2023-09-08T18:54:54.038Z,7.10
2023-09-08T18:57:20.711Z,7.55
2023-09-08T18:59:49.619Z,8.07
2023-09-08T19:02:16.443Z,7.40
2023-09-08T19:04:43.263Z,7.63
2023-09-08T19:07:10.049Z,7.87
2023-09-08T19:09:36.764Z,7.55
2023-09-08T19:12:04.107Z,7.50
2023-09-08T19:14:30.806Z,7.78
2023-09-08T19:17:01.612Z,8.43
2023-09-08T19:19:28.425Z,7.87
2023-09-08T19:21:55.371Z,7.72
2023-09-08T19:24:25.460Z,7.95
2023-09-08T19:26:52.518Z,8.25
2023-09-08T19:29:22.004Z,8.20
2023-09-08T19:31:48.646Z,8.07
2023-09-08T19:34:15.296Z,7.90
2023-09-08T19:36:42.067Z,8.00
2023-09-08T19:39:09.892Z,7.97
2023-09-08T19:41:37.037Z,7.70
2023-09-08T19:44:04.742Z,8.73
2023-09-08T19:46:35.171Z,8.63
2023-09-08T19:49:01.973Z,9.27
2023-09-08T19:51:28.700Z,7.63
2023-09-08T19:53:55.507Z,8.27
2023-09-08T19:56:22.194Z,8.07
2023-09-08T19:58:51.941Z,8.80
2023-09-08T20:01:19.309Z,8.32
2023-09-08T20:03:46.120Z,7.88
2023-09-08T20:06:16.313Z,7.88
2023-09-08T20:08:43.137Z,8.33
2023-09-08T20:11:10.239Z,8.25
2023-09-08T20:13:37.197Z,8.35
2023-09-08T20:16:07.741Z,7.93
2023-09-08T20:18:36.069Z,7.90
2023-09-08T20:21:04.572Z,9.00
2023-09-08T20:23:32.417Z,8.75
2023-09-08T20:25:59.841Z,8.50
2023-09-08T20:28:26.680Z,8.70
2023-09-08T20:31:13.228Z,8.52
2023-09-08T20:33:41.317Z,9.63
2023-09-08T20:36:08.833Z,9.55
2023-09-08T20:38:35.601Z,8.98
2023-09-08T20:41:02.354Z,10.18
2023-09-08T20:43:28.992Z,10.38
2023-09-08T20:45:57.226Z,9.73
2023-09-08T20:48:24.211Z,10.02
2023-09-08T20:51:04.194Z,11.02
2023-09-08T20:53:31.380Z,9.60
2023-09-08T20:55:58.940Z,10.77
2023-09-08T20:58:27.061Z,10.33
2023-09-08T21:00:55.240Z,10.13
2023-09-08T21:03:22.475Z,10.90
2023-09-08T21:05:51.464Z,11.63
2023-09-08T21:08:19.765Z,14.18
2023-09-08T21:10:50.056Z,17.50
2023-09-08T21:13:17.223Z,15.82
2023-09-08T21:15:44.165Z,15.77
2023-09-08T21:18:10.981Z,17.50
2023-09-08T21:20:38.108Z,20.05
2023-09-08T21:23:05.035Z,19.10
2023-09-08T21:25:33.628Z,18.15
2023-09-08T21:28:00.512Z,19.50
2023-09-08T21:30:27.487Z,20.45
2023-09-08T21:32:54.246Z,20.77
2023-09-08T21:35:20.971Z,20.90
2023-09-08T21:37:47.841Z,20.55
2023-09-08T21:40:15.166Z,22.08
2023-09-08T21:42:41.984Z,20.23
2023-09-08T21:45:09.099Z,20.60
2023-09-08T21:47:35.914Z,21.30
2023-09-08T21:50:02.677Z,22.10
2023-09-08T21:52:38.409Z,21.95
2023-09-08T21:55:06.834Z,22.55
2023-09-08T21:57:33.526Z,21.48
2023-09-08T22:00:00.326Z,22.63
2023-09-08T22:02:27.266Z,23.90
2023-09-08T22:04:54.287Z,22.42
2023-09-08T22:07:21.172Z,22.08
2023-09-08T22:09:47.825Z,22.25
2023-09-08T22:12:17.365Z,20.20
2023-09-08T22:14:44.401Z,20.17
2023-09-08T22:17:13.881Z,22.58
2023-09-08T22:19:41.175Z,23.88
2023-09-08T22:22:08.744Z,20.85
2023-09-08T22:24:35.391Z,21.60
2023-09-08T22:27:04.816Z,21.00
2023-09-08T22:29:32.213Z,20.38
2023-09-08T22:31:59.992Z,21.15
2023-09-08T22:34:26.930Z,20.85
2023-09-08T22:36:53.841Z,20.03
2023-09-08T22:39:21.157Z,20.83
2023-09-08T22:41:47.927Z,20.85
2023-09-08T22:44:14.748Z,21.45
2023-09-08T22:46:41.517Z,18.35
2023-09-08T22:49:08.263Z,20.10
2023-09-08T22:51:34.944Z,19.17
2023-09-08T22:54:01.807Z,20.33
2023-09-08T22:56:28.669Z,20.38
2023-09-08T22:58:55.544Z,20.08
2023-09-08T23:01:22.222Z,18.83
2023-09-08T23:03:49.104Z,19.17
2023-09-08T23:06:16.125Z,20.20
2023-09-08T23:08:42.892Z,19.63
2023-09-08T23:11:09.857Z,21.35
2023-09-08T23:13:36.879Z,21.07
2023-09-08T23:16:04.489Z,21.17
2023-09-08T23:18:31.237Z,22.30
2023-09-08T23:20:58.042Z,21.08
2023-09-08T23:23:25.099Z,20.08
2023-09-08T23:25:51.912Z,20.37
2023-09-08T23:28:18.615Z,20.67
2023-09-08T23:30:45.385Z,21.42
2023-09-08T23:33:12.182Z,21.77
2023-09-08T23:35:39.124Z,24.42
2023-09-08T23:38:05.760Z,22.60
2023-09-08T23:40:32.887Z,23.02
2023-09-08T23:42:59.527Z,23.45
2023-09-08T23:45:26.159Z,23.13
2023-09-08T23:47:53.680Z,24.17
2023-09-08T23:50:42.722Z,29.00
2023-09-08T23:53:09.780Z,28.30
2023-09-08T23:55:37.291Z,36.78
2023-09-08T23:58:04.682Z,41.45
